Lewisetta, VA NWLON current weather conditions

sailwx.info

Wind from 013 at 6 knots gusting 9

Air temperature 5.6° C
Water temperature 5.6° C

Last reported at 2016-Feb-07 20:42 UTC.
Time now 2016-Feb-07 21:50 UTC

Location: N 37°60' W 076°28'.
View on Google Maps.

See reports from other nearby stations

  
Tides and Currents Weather Stations Pressure Air Temp Water Temp Dewpoint Dewpoint Depression Visibility Wind Speed Wind Dir Waves Ship Positions
date/time (UTC)wind fromknots sea level pressurealtimeterstation pressurevisibilityair tempwater tempwave heightnotes
2016-Feb-07 20:42 013 6 gusting 9 5.6 5.6
2016-Feb-07 20:36 014 5 gusting 10 5.6 5.6
2016-Feb-07 20:30 019 6 gusting 10 5.6 5.6
2016-Feb-07 20:24 013 7 gusting 11 5.6 5.6
2016-Feb-07 20:18 020 6 gusting 7 5.6 5.6
2016-Feb-07 20:12 019 5 gusting 9 5.6 5.6
2016-Feb-07 20:06 018 6 gusting 8 5.6 5.6
2016-Feb-07 20:00 028 7 gusting 11 5.6 5.6
2016-Feb-07 19:54 028 6 gusting 10 5.6 5.6
2016-Feb-07 19:48 022 5 gusting 7 5.6 5.6
2016-Feb-07 19:42 012 6 gusting 7 5.6 5.6
2016-Feb-07 19:36 019 6 gusting 8 5.6 5.6
2016-Feb-07 19:30 021 4 gusting 6 5.6 5.6
2016-Feb-07 19:24 029 6 gusting 9 5.6 5.6
2016-Feb-07 19:18 034 6 gusting 9 5.6 5.6
2016-Feb-07 19:12 030 7 gusting 10 5.6 5.6
2016-Feb-07 19:06 025 6 gusting 11 5.6 5.6
2016-Feb-07 19:00 025 6 gusting 12 5.0 5.6
2016-Feb-07 18:54 033 6 gusting 9 5.0 5.6
2016-Feb-07 18:48 027 5 gusting 8 5.0 5.0
2016-Feb-07 18:42 029 8 gusting 11 5.0 5.0
2016-Feb-07 18:36 028 7 gusting 12 5.0 5.0
2016-Feb-07 18:30 039 6 gusting 9 5.0 5.0
2016-Feb-07 18:24 037 6 gusting 10 5.0 5.6
2016-Feb-07 18:18 043 7 gusting 12 4.4 5.6
2016-Feb-07 18:12 041 6 gusting 8 5.0 5.6
2016-Feb-07 18:06 045 6 gusting 10 5.0 5.6
2016-Feb-07 18:00 047 7 gusting 10 4.4 5.6
2016-Feb-07 17:54 056 6 gusting 11 4.4 5.6
2016-Feb-07 17:48 063 6 gusting 10 4.4 5.6
2016-Feb-07 17:42 067 8 gusting 10 4.4 5.6
2016-Feb-07 17:36 069 8 gusting 11 4.4 5.6
2016-Feb-07 17:30 073 9 gusting 12 4.4 5.6
2016-Feb-07 17:24 072 12 gusting 14 4.4 6.1
2016-Feb-07 17:18 075 10 gusting 13 5.0 6.1
2016-Feb-07 17:12 068 9 gusting 12 5.0 6.1
2016-Feb-07 17:06 068 6 gusting 9 5.0 6.1
2016-Feb-07 17:00 063 6 gusting 9 5.0 6.1
2016-Feb-07 16:54 063 5 gusting 7 5.0 6.1
2016-Feb-07 16:48 053 4 gusting 6 5.6 5.6
2016-Feb-07 16:42 062 3 gusting 6 5.0 5.0
2016-Feb-07 16:36 033 4 gusting 6 5.0 5.0
2016-Feb-07 16:30 034 4 gusting 6 5.0 5.0
2016-Feb-07 16:24 024 4 gusting 6 4.4 5.0
2016-Feb-07 16:18 027 4 gusting 6 4.4 5.0
2016-Feb-07 16:12 020 4 gusting 7 4.4 5.0
2016-Feb-07 16:06 011 6 gusting 7 4.4 5.0
2016-Feb-07 16:00 011 6 gusting 9 4.4 5.0
2016-Feb-07 15:54 008 7 gusting 11 3.9 5.0
2016-Feb-07 15:48 013 6 gusting 8 3.9 5.0
2016-Feb-07 15:42 010 6 gusting 7 3.9 5.0
2016-Feb-07 15:36 012 6 gusting 7 3.9 5.0
2016-Feb-07 15:30 012 6 gusting 8 3.3 5.6
2016-Feb-07 15:24 010 7 gusting 9 3.3 6.1
2016-Feb-07 15:18 015 5 gusting 7 3.3 6.1
2016-Feb-07 15:12 011 3 gusting 5 3.3 6.1
2016-Feb-07 15:06 002 5 gusting 6 3.3 6.1
2016-Feb-07 15:00 017 5 gusting 7 3.3 6.1
2016-Feb-07 14:54 012 5 gusting 7 2.8 6.1
2016-Feb-07 14:48 359 6 gusting 8 3.3 6.1
2016-Feb-07 14:42 001 6 gusting 9 2.8 5.6
2016-Feb-07 14:30 011 6 gusting 8 2.8 6.1
2016-Feb-07 14:24 009 6 gusting 8 2.8 6.1
2016-Feb-07 14:18 011 6 gusting 8 2.8 5.6
2016-Feb-07 14:12 014 6 gusting 8 2.2 6.1
2016-Feb-07 14:06 010 6 gusting 7 2.2 6.1
2016-Feb-07 14:00 005 6 gusting 7 2.2 6.1
2016-Feb-07 13:54 014 6 gusting 8 2.2 6.1
2016-Feb-07 13:48 008 4 gusting 6 2.8 6.1
2016-Feb-07 13:42 010 5 gusting 6 2.8 6.1
2016-Feb-07 13:36 007 6 gusting 10 2.2 6.1
2016-Feb-07 13:30 011 6 gusting 8 2.2 6.1
2016-Feb-07 13:24 006 4 gusting 6 2.2 5.6
2016-Feb-07 13:18 003 6 gusting 7 2.2 5.6
2016-Feb-07 13:12 005 5 gusting 7 2.2 5.6
2016-Feb-07 13:06 006 6 gusting 7 2.2 5.6
2016-Feb-07 13:00 006 5 gusting 6 2.2 5.6
2016-Feb-07 12:54 006 6 gusting 8 2.2 5.6
2016-Feb-07 12:48 013 5 gusting 6 2.2 5.6
2016-Feb-07 12:42 006 5 gusting 6 2.2 5.6
2016-Feb-07 12:36 334 3 gusting 3 1.7 5.6
2016-Feb-07 12:30 332 2 gusting 3 1.7 5.6
2016-Feb-07 12:24 327 2 gusting 3 1.7 5.6
2016-Feb-07 12:18 308 1 gusting 2 1.7 5.6
2016-Feb-07 12:12 333 1 gusting 2 1.7 5.6
2016-Feb-07 12:06 353 2 gusting 3 1.7 5.6
2016-Feb-07 12:00 017 0 gusting 0 1.1 5.6
2016-Feb-07 11:54 331 1 gusting 1 1.1 5.6
2016-Feb-07 11:48 323 2 gusting 2 1.1 5.6
2016-Feb-07 11:42 325 2 gusting 3 1.1 5.6
2016-Feb-07 11:36 307 3 gusting 3 1.7 5.6
2016-Feb-07 11:30 271 2 gusting 2 1.7 5.6
2016-Feb-07 11:24 227 2 gusting 2 1.1 5.6
2016-Feb-07 11:18 227 1 gusting 1 1.1 5.6
2016-Feb-07 11:12 257 1 gusting 2 1.1 5.6
2016-Feb-07 11:06 251 1 gusting 1 1.1 5.6
2016-Feb-07 11:00 297 2 gusting 2 1.1 5.6
2016-Feb-07 10:54 321 2 gusting 2 1.1 5.6
2016-Feb-07 10:48 329 2 gusting 3 1.1 5.6
2016-Feb-07 10:42 347 3 gusting 5 1.1 5.6
2016-Feb-07 10:36 342 3 gusting 6 0.6 5.6
2016-Feb-07 10:30 336 3 gusting 5 0.6 5.6
2016-Feb-07 10:24 344 2 gusting 3 0.6 5.6
2016-Feb-07 10:18 352 4 gusting 5 -0.0 5.6
2016-Feb-07 10:12 357 4 gusting 5 -0.0 5.6
2016-Feb-07 10:06 343 3 gusting 3 0.6 5.6
2016-Feb-07 10:00 323 2 gusting 3 0.6 5.6
2016-Feb-07 09:54 319 0 gusting 1 0.6 5.6
2016-Feb-07 09:48 243 1 gusting 1 0.6 5.6
2016-Feb-07 09:42 232 2 gusting 2 0.6 5.6
2016-Feb-07 09:36 264 1 gusting 2 0.6 5.6
2016-Feb-07 09:30 271 1 gusting 1 0.6 5.6
2016-Feb-07 09:24 281 1 gusting 1 0.6 5.6
2016-Feb-07 09:18 273 0 gusting 0 0.6 5.6
2016-Feb-07 09:12 290 1 gusting 1 0.6 5.6
2016-Feb-07 09:06 282 2 gusting 2 0.6 5.6
2016-Feb-07 09:00 274 2 gusting 2 0.6 5.6
2016-Feb-07 08:54 262 2 gusting 2 0.6 5.6
2016-Feb-07 08:48 271 2 gusting 2 0.6 5.6
2016-Feb-07 08:42 261 1 gusting 2 0.6 5.6
2016-Feb-07 08:36 270 2 gusting 2 0.6 5.6
2016-Feb-07 08:30 269 2 gusting 3 0.6 5.6
2016-Feb-07 08:24 255 2 gusting 3 0.6 5.6
2016-Feb-07 08:18 271 2 gusting 2 0.6 5.6
2016-Feb-07 08:12 276 2 gusting 3 0.6 5.6
2016-Feb-07 08:06 239 1 gusting 2 0.6 5.6
2016-Feb-07 08:00 241 1 gusting 2 0.6 5.6
2016-Feb-07 07:54 252 2 gusting 3 0.6 5.6
2016-Feb-07 07:48 256 4 gusting 5 0.6 5.6
2016-Feb-07 07:42 262 3 gusting 4 0.6 5.6
2016-Feb-07 07:36 266 2 gusting 3 0.6 5.6
2016-Feb-07 07:30 243 2 gusting 2 0.6 5.6
2016-Feb-07 07:24 244 1 gusting 2 0.6 5.6
2016-Feb-07 07:18 230 1 gusting 2 0.6 5.6
2016-Feb-07 07:12 254 3 gusting 3 0.6 5.6
2016-Feb-07 07:06 259 3 gusting 4 0.6 5.6
2016-Feb-07 06:00 268 2 gusting 2 1.1 5.6
2016-Feb-07 05:54 294 1 gusting 1 1.1 5.6
2016-Feb-07 05:48 292 2 gusting 2 1.1 5.6
2016-Feb-07 05:42 295 1 gusting 2 1.1 5.6
2016-Feb-07 05:36 312 1 gusting 1 1.1 5.6
2016-Feb-07 05:00 299 1.1 5.6
2016-Feb-07 04:54 193 1.1 5.6
2016-Feb-07 04:48 201 1.7 5.6
2016-Feb-07 04:42 223 1 gusting 1 1.7 5.6
2016-Feb-07 04:36 195 1 gusting 2 1.7 5.6
2016-Feb-07 04:30 187 2 gusting 2 1.7 5.6
2016-Feb-07 04:24 195 2 gusting 3 1.7 5.6
2016-Feb-07 04:18 213 2 gusting 2 1.7 5.6
2016-Feb-07 04:12 207 1 gusting 2 1.7 5.6
2016-Feb-07 04:06 184 1 gusting 2 1.7 5.6
2016-Feb-07 04:00 209 2 gusting 2 1.7 5.6
2016-Feb-07 03:54 224 2 gusting 3 1.7 5.6
2016-Feb-07 03:48 219 3 gusting 4 1.7 5.6
2016-Feb-07 03:42 220 3 gusting 4 1.7 5.6
2016-Feb-07 03:36 219 4 gusting 5 1.7 5.6
2016-Feb-07 03:30 224 3 gusting 4 1.7 5.6
2016-Feb-07 03:24 220 3 gusting 3 1.7 5.6
2016-Feb-07 03:18 210 3 gusting 3 1.7 5.6
2016-Feb-07 03:12 217 2 gusting 3 2.2 5.6
2016-Feb-07 03:06 219 3 gusting 5 1.7 5.6
2016-Feb-07 02:30 221 2 gusting 3 2.2 5.6
2016-Feb-07 02:24 214 2 gusting 3 2.2 5.6
2016-Feb-07 02:18 225 3 gusting 4 2.2 5.6
2016-Feb-07 02:12 222 4 gusting 5 2.2 5.6
2016-Feb-07 02:06 221 4 gusting 6 2.2 5.6
2016-Feb-07 02:00 209 5 gusting 6 2.2 5.6
2016-Feb-07 01:54 212 5 gusting 6 2.2 5.6
2016-Feb-07 01:48 212 6 gusting 6 2.2 5.6
2016-Feb-07 01:42 209 6 gusting 6 2.2 5.6
2016-Feb-07 01:36 205 5 gusting 6 2.8 5.6
2016-Feb-07 01:30 201 4 gusting 5 2.8 5.6
2016-Feb-07 01:24 203 4 gusting 5 2.8 5.6
2016-Feb-07 01:18 207 5 gusting 5 2.8 6.1
2016-Feb-07 01:12 220 5 gusting 6 2.8 5.6
2016-Feb-07 01:06 220 5 gusting 6 2.8 5.6
2016-Feb-07 01:00 215 4 gusting 6 2.8 5.6
2016-Feb-07 00:54 209 4 gusting 4 2.8 5.6
2016-Feb-07 00:48 200 3 gusting 4 3.3 5.6
2016-Feb-07 00:42 182 4 gusting 5 3.3 5.6
2016-Feb-07 00:36 175 5 gusting 6 3.3 5.6
2016-Feb-07 00:30 183 5 gusting 6 3.3 5.6
2016-Feb-07 00:24 192 5 gusting 6 3.3 5.6
2016-Feb-07 00:18 195 3 gusting 4 2.8 5.6
2016-Feb-07 00:12 183 5 gusting 6 2.8 5.6
2016-Feb-07 00:06 177 5 gusting 6 2.8 5.6
2016-Feb-06 23:54 176 6 gusting 6 2.8 5.6
2016-Feb-06 23:48 172 6 gusting 6 3.3 5.6
2016-Feb-06 23:42 167 6 gusting 7 3.3 5.6
2016-Feb-06 23:36 163 5 gusting 5 3.3 5.6
2016-Feb-06 23:30 166 5 gusting 6 3.3 5.6
2016-Feb-06 23:24 167 5 gusting 6 3.3 5.6
2016-Feb-06 23:18 174 5 gusting 6 3.3 5.6
2016-Feb-06 23:12 164 5 gusting 6 3.9 5.6
2016-Feb-06 23:06 161 5 gusting 6 3.9 5.6
2016-Feb-06 23:00 169 6 gusting 6 3.9 5.6
2016-Feb-06 22:54 175 5 gusting 6 3.9 5.6
2016-Feb-06 22:48 175 5 gusting 6 3.9 5.6
2016-Feb-06 22:42 160 6 gusting 7 4.4 5.6
2016-Feb-06 22:36 145 6 gusting 7 4.4 5.6
2016-Feb-06 22:30 141 7 gusting 8 4.4 5.6
2016-Feb-06 22:18 132 9 gusting 10 4.4 5.6
2016-Feb-06 22:12 138 8 gusting 9 4.4 5.6
2016-Feb-06 22:06 131 9 gusting 10 4.4 5.6
2016-Feb-06 22:00 136 9 gusting 10 4.4 5.6
2016-Feb-06 21:54 131 9 gusting 10 4.4 5.6
2016-Feb-06 21:48 129 9 gusting 10 4.4 5.6
2016-Feb-06 21:42 129 8 gusting 9 4.4 5.6
2016-Feb-06 21:36 124 7 gusting 8 4.4 5.6
2016-Feb-06 21:30 122 7 gusting 9 4.4 5.6
2016-Feb-06 21:24 122 8 gusting 9 4.4 5.6
2016-Feb-06 21:18 125 9 gusting 10 4.4 5.6
2016-Feb-06 21:12 123 8 gusting 9 4.4 5.6
2016-Feb-06 21:06 121 8 gusting 9 4.4 5.6
2016-Feb-06 21:00 124 8 gusting 10 3.9 5.6
2016-Feb-06 20:54 121 8 gusting 9 3.9 5.6
2016-Feb-06 20:48 124 8 gusting 9 3.9 5.6
2016-Feb-06 20:42 112 9 gusting 9 3.9 5.6
2016-Feb-06 20:36 113 9 gusting 9 3.9 5.6
2016-Feb-06 20:30 119 9 gusting 11 3.9 5.6
2016-Feb-06 20:24 113 8 gusting 9 3.9 5.6
2016-Feb-06 20:18 108 8 gusting 9 3.9 5.6
2016-Feb-06 20:12 106 8 gusting 9 3.9 5.6
2016-Feb-06 20:06 108 8 gusting 9 3.9 5.6
2016-Feb-06 20:00 106 8 gusting 10 3.9 5.6
2016-Feb-06 19:54 118 9 gusting 10 3.9 5.6
2016-Feb-06 19:48 118 8 gusting 9 3.9 5.6
2016-Feb-06 19:42 115 9 gusting 10 3.9 5.6
2016-Feb-06 19:36 116 9 gusting 10 3.9 5.6
2016-Feb-06 19:30 111 9 gusting 10 3.9 5.6
2016-Feb-06 19:24 107 9 gusting 10 3.9 5.6
2016-Feb-06 19:18 111 8 gusting 9 3.9 5.6
2016-Feb-06 19:12 108 9 gusting 10 3.9 5.6
2016-Feb-06 19:06 109 8 gusting 9 3.3 5.6
2016-Feb-06 19:00 115 9 gusting 10 3.3 5.6
2016-Feb-06 18:54 116 9 gusting 10 3.3 5.6
2016-Feb-06 18:48 109 9 gusting 10 3.3 5.6
2016-Feb-06 18:42 110 8 gusting 8 3.3 5.6
2016-Feb-06 18:36 116 8 gusting 8 3.3 5.6
2016-Feb-06 18:30 114 7 gusting 9 3.3 5.0
2016-Feb-06 18:24 104 7 gusting 8 3.3 5.0
2016-Feb-06 18:18 103 7 gusting 9 3.3 5.0
2016-Feb-06 18:06 114 6 gusting 6 3.3 5.0
2016-Feb-06 17:54 109 6 gusting 6 3.3 5.0
2016-Feb-06 17:48 108 6 gusting 7 3.3 5.0
2016-Feb-06 17:42 112 6 gusting 6 3.3 5.0
2016-Feb-06 17:36 114 5 gusting 5 3.3 5.0
2016-Feb-06 17:30 117 5 gusting 6 3.3 5.0
2016-Feb-06 17:24 114 4 gusting 5 3.3 5.0
2016-Feb-06 17:18 107 4 gusting 5 3.3 5.0
2016-Feb-06 17:12 104 4 gusting 5 3.3 5.0
2016-Feb-06 17:06 104 4 gusting 5 2.8 5.0
2016-Feb-06 17:00 094 4 gusting 5 2.8 5.0
2016-Feb-06 16:54 105 4 gusting 5 2.8 5.0
2016-Feb-06 16:48 098 3 gusting 4 2.8 5.0
2016-Feb-06 16:42 100 4 gusting 5 2.8 5.0
2016-Feb-06 16:36 092 4 gusting 5 2.8 5.0
2016-Feb-06 16:30 090 3 gusting 4 2.8 5.0
2016-Feb-06 16:24 089 3 gusting 4 3.3 5.6
2016-Feb-06 16:18 077 2 gusting 3 3.3 5.6
2016-Feb-06 16:12 074 2 gusting 3 2.8 5.6
2016-Feb-06 16:06 064 2 gusting 3 2.8 5.6
2016-Feb-06 16:00 089 3 gusting 4 3.3 5.6
2016-Feb-06 15:54 082 2 gusting 3 3.3 5.6
2016-Feb-06 15:48 099 2 gusting 3 3.3 5.6
2016-Feb-06 15:42 078 1 gusting 2 3.3 5.6
2016-Feb-06 15:36 096 2 gusting 3 3.3 5.6
2016-Feb-06 15:30 124 0 gusting 0 3.9 5.6
2016-Feb-06 15:24 128 0 gusting 1 5.0 5.6
2016-Feb-06 15:18 165 5.0 5.6
2016-Feb-06 15:12 240 3.9 5.6
2016-Feb-06 15:06 186 1 gusting 1 3.3 5.6
2016-Feb-06 15:00 184 0 gusting 1 3.3 5.6
2016-Feb-06 14:54 203 1 gusting 1 3.3 5.6
2016-Feb-06 14:48 238 1 gusting 1 2.8 5.6
2016-Feb-06 14:42 245 2 gusting 2 2.8 5.6
2016-Feb-06 14:36 254 1 gusting 2 2.2 5.6
2016-Feb-06 14:30 270 1 gusting 2 2.2 5.6
2016-Feb-06 14:24 274 1 gusting 1 2.2 5.6
2016-Feb-06 14:18 290 2 gusting 3 1.7 5.6
2016-Feb-06 14:12 291 1 gusting 2 1.7 5.6
2016-Feb-06 14:06 280 1 gusting 2 1.1 5.6
2016-Feb-06 14:00 278 2 gusting 3 0.6 5.6
2016-Feb-06 13:54 264 2 gusting 3 0.6 5.6
2016-Feb-06 13:48 269 2 gusting 3 0.6 5.6
2016-Feb-06 13:42 261 2 gusting 2 0.6 5.6
2016-Feb-06 13:36 258 2 gusting 3 -0.0 5.6
2016-Feb-06 13:30 265 3 gusting 3 -0.0 5.6
2016-Feb-06 13:24 244 3 gusting 3 -0.0 5.6
2016-Feb-06 13:18 248 3 gusting 4 -0.0 5.0
2016-Feb-06 13:12 269 3 gusting 3 -0.0 5.6
2016-Feb-06 13:06 274 1 gusting 2 -0.0 5.6
2016-Feb-06 13:00 299 1 gusting 2 -0.6 5.0
2016-Feb-06 12:54 310 2 gusting 3 -0.6 5.0
2016-Feb-06 12:48 298 1 gusting 2 -0.6 5.6
2016-Feb-06 12:42 307 1 gusting 2 -0.6 5.6
2016-Feb-06 12:36 317 2 gusting 2 -0.6 5.0
2016-Feb-06 12:30 304 1 gusting 2 -0.6 5.0
2016-Feb-06 12:24 274 3 gusting 4 -0.6 5.0
2016-Feb-06 12:18 269 3 gusting 3 -0.0 5.0
2016-Feb-06 12:12 262 3 gusting 4 -0.6 5.6
2016-Feb-06 12:06 270 3 gusting 3 -0.6 5.6
2016-Feb-06 12:00 278 1 gusting 2 -0.6 5.6
2016-Feb-06 11:54 287 2 gusting 2 -0.6 5.6
2016-Feb-06 11:48 266 3 gusting 4 -0.0 5.0
2016-Feb-06 11:42 260 1 gusting 2 -0.0 5.0
2016-Feb-06 11:36 263 2 gusting 2 -0.0 5.0
2016-Feb-06 11:30 233 1 gusting 2 -0.6 5.0
2016-Feb-06 11:24 260 2 gusting 2 -0.6 5.6
2016-Feb-06 11:18 243 2 gusting 2 -0.6 5.6
2016-Feb-06 11:12 253 1 gusting 2 -0.6 5.6
2016-Feb-06 11:06 252 2 gusting 2 -0.6 5.6
2016-Feb-06 11:00 240 1 gusting 2 -0.0 5.6
2016-Feb-06 10:54 263 2 gusting 2 -0.0 5.6
2016-Feb-06 10:48 257 2 gusting 3 -0.0 5.6
2016-Feb-06 10:42 261 2 gusting 3 -0.0 5.6
2016-Feb-06 10:36 261 2 gusting 3 -0.0 5.6
2016-Feb-06 10:30 264 2 gusting 3 -0.0 5.6
2016-Feb-06 10:24 262 2 gusting 3 -0.0 5.6
2016-Feb-06 10:18 277 2 gusting 2 0.6 5.6
2016-Feb-06 10:12 283 2 gusting 3 -0.0 5.6
2016-Feb-06 10:06 286 2 gusting 2 -0.0 5.6
2016-Feb-06 10:00 275 3 gusting 4 -0.0 5.6
2016-Feb-06 09:54 272 3 gusting 4 -0.0 5.6
2016-Feb-06 09:48 292 1 gusting 1 0.6 5.6
2016-Feb-06 09:42 307 1 gusting 2 0.6 5.6
2016-Feb-06 09:36 309 2 gusting 3 0.6 5.6
2016-Feb-06 09:30 300 2 gusting 4 0.6 5.6
2016-Feb-06 09:24 296 2 gusting 3 0.6 5.6
2016-Feb-06 09:18 282 1 gusting 2 0.6 5.6
2016-Feb-06 09:12 300 1 gusting 2 1.1 5.6
2016-Feb-06 09:06 305 2 gusting 2 1.1 5.6
2016-Feb-06 09:00 310 2 gusting 2 1.1 5.6
2016-Feb-06 08:54 297 2 gusting 2 1.7 5.6
2016-Feb-06 08:48 303 1 gusting 2 1.7 5.6
2016-Feb-06 08:42 338 1 gusting 3 1.7 5.6
2016-Feb-06 08:36 310 2 gusting 3 1.7 5.6
2016-Feb-06 08:30 339 2 gusting 4 2.2 5.6
2016-Feb-06 08:24 358 3 gusting 5 2.2 5.6
2016-Feb-06 08:18 357 4 gusting 6 2.2 5.6
2016-Feb-06 08:12 359 3 gusting 4 2.2 5.6
2016-Feb-06 08:06 001 3 gusting 4 2.2 5.6
2016-Feb-06 08:00 003 1 gusting 3 2.2 5.6
2016-Feb-06 07:54 007 3 gusting 6 2.2 5.6
2016-Feb-06 07:48 005 3 gusting 6 2.2 5.6
2016-Feb-06 07:42 002 3 gusting 5 2.2 5.6
2016-Feb-06 07:36 006 4 gusting 6 2.2 5.6
2016-Feb-06 07:30 004 4 gusting 6 2.2 5.6
2016-Feb-06 07:24 003 4 gusting 5 2.2 5.6
2016-Feb-06 07:18 006 3 gusting 5 2.2 5.6
2016-Feb-06 07:12 356 4 gusting 6 2.2 5.6
2016-Feb-06 07:06 358 6 gusting 7 2.2 5.6
2016-Feb-06 07:00 005 5 gusting 6 2.2 5.6
2016-Feb-06 06:54 357 6 gusting 7 2.2 5.6
2016-Feb-06 06:48 002 6 gusting 8 2.8 5.6
2016-Feb-06 06:42 006 5 gusting 7 2.2 5.6
2016-Feb-06 06:36 2.8 5.6
2016-Feb-06 06:30 001 5 gusting 7 2.8 5.6
2016-Feb-06 06:24 001 5 gusting 6 2.8 5.6
2016-Feb-06 06:18 357 4 gusting 6 2.8 6.1
2016-Feb-06 06:12 005 4 gusting 6 2.8 5.6
2016-Feb-06 06:06 002 6 gusting 7 2.8 5.6
2016-Feb-06 06:00 004 6 gusting 8 2.8 5.6
2016-Feb-06 05:54 010 6 gusting 8 2.8 5.6
2016-Feb-06 05:48 003 6 gusting 8 2.8 5.6
2016-Feb-06 05:42 013 6 gusting 9 2.8 5.6
2016-Feb-06 05:36 004 5 gusting 7 2.8 5.6
2016-Feb-06 05:30 007 5 gusting 7 2.8 5.6
2016-Feb-06 05:24 017 5 gusting 7 2.8 5.6
2016-Feb-06 05:18 001 6 gusting 9 2.8 5.6
2016-Feb-06 05:12 004 5 gusting 7 2.8 5.6
2016-Feb-06 05:06 002 6 gusting 9 2.8 5.6
2016-Feb-06 05:00 001 6 gusting 10 2.8 6.1
2016-Feb-06 04:54 001 7 gusting 11 2.8 6.1
2016-Feb-06 04:48 001 6 gusting 9 2.8 6.1
2016-Feb-06 04:42 003 6 gusting 8 2.8 6.1
2016-Feb-06 04:36 005 6 gusting 10 2.8 6.1
2016-Feb-06 04:30 3.3 6.1
2016-Feb-06 04:24 009 5 gusting 7 2.8 6.1
2016-Feb-06 04:18 358 8 gusting 11 2.8 6.1
2016-Feb-06 04:12 004 6 gusting 9 3.3 6.1
2016-Feb-06 04:06 356 6 gusting 8 3.3 6.1
2016-Feb-06 04:00 009 6 gusting 9 3.3 6.1
2016-Feb-06 03:54 357 6 gusting 9 3.3 6.1
2016-Feb-06 03:48 007 4 gusting 6 3.3 6.1
2016-Feb-06 03:42 359 8 gusting 11 3.3 6.1
2016-Feb-06 03:36 005 6 gusting 8 3.3 6.1
2016-Feb-06 03:30 001 9 gusting 13 3.3 6.1
2016-Feb-06 03:24 005 6 gusting 9 3.3 6.1
2016-Feb-06 03:18 356 8 gusting 12 3.3 6.1
2016-Feb-06 03:12 003 6 gusting 9 3.3 6.1
2016-Feb-06 03:06 002 6 gusting 10 3.3 6.1
2016-Feb-06 03:00 002 6 gusting 8 3.3 6.1
2016-Feb-06 02:54 353 7 gusting 10 3.3 6.1
2016-Feb-06 02:48 004 9 gusting 12 3.3 6.1
2016-Feb-06 02:42 357 9 gusting 13 3.3 6.1
2016-Feb-06 02:36 355 10 gusting 13 3.3 6.1
2016-Feb-06 02:30 3.3 6.1
2016-Feb-06 02:24 353 10 gusting 14 3.9 6.1
2016-Feb-06 02:18 359 11 gusting 14 3.9 6.7
2016-Feb-06 02:12 359 11 gusting 17 3.9 6.7
2016-Feb-06 02:06 354 12 gusting 18 3.9 6.7
2016-Feb-06 02:00 353 10 gusting 17 3.9 6.7
2016-Feb-06 01:54 353 11 gusting 13 3.9 6.7
2016-Feb-06 01:48 352 8 gusting 12 3.9 6.7
2016-Feb-06 01:42 350 10 gusting 14 3.9 6.7
2016-Feb-06 01:36 348 11 gusting 13 3.9 6.7
2016-Feb-06 01:30 348 11 gusting 16 3.9 6.7
2016-Feb-06 01:24 350 10 gusting 14 3.9 6.7
2016-Feb-06 01:18 348 7 gusting 12 3.9 6.7
2016-Feb-06 01:12 349 9 gusting 13 3.9 6.7
2016-Feb-06 01:06 339 6 gusting 10 4.4 6.7
2016-Feb-06 01:00 348 9 gusting 13 3.9 6.7
2016-Feb-06 00:54 341 6 gusting 8 3.9 6.7
2016-Feb-06 00:48 337 7 gusting 10 3.9 6.7
2016-Feb-06 00:42 338 10 gusting 13 4.4 6.7
2016-Feb-06 00:36 338 6 gusting 9 4.4 6.7
2016-Feb-06 00:30 339 8 gusting 13 3.9 6.7
2016-Feb-06 00:24 343 7 gusting 10 3.9 6.7
2016-Feb-06 00:18 343 6 gusting 9 3.9 6.7
2016-Feb-06 00:12 340 7 gusting 10 3.9 6.7
2016-Feb-06 00:06 337 8 gusting 12 4.4 6.7
2016-Feb-05 23:48 329 10 gusting 12 4.4 6.7
2016-Feb-05 23:42 327 10 gusting 13 4.4 6.7
2016-Feb-05 23:36 332 10 gusting 12 4.4 6.7
2016-Feb-05 23:30 328 9 gusting 13 4.4 6.7
2016-Feb-05 23:24 325 9 gusting 12 4.4 6.7
2016-Feb-05 23:18 335 8 gusting 12 4.4 6.7
2016-Feb-05 23:12 328 11 gusting 13 4.4 6.7
2016-Feb-05 23:06 328 11 gusting 16 4.4 6.7
2016-Feb-05 23:00 327 13 gusting 16 5.0 7.2
2016-Feb-05 22:54 325 11 gusting 14 5.0 7.2
2016-Feb-05 22:48 323 11 gusting 14 5.0 7.2
2016-Feb-05 22:42 329 11 gusting 16 5.0 6.7
2016-Feb-05 22:36 330 10 gusting 13 5.0 6.7
2016-Feb-05 22:30 334 9 gusting 13 5.0 7.2
2016-Feb-05 22:24 330 12 gusting 17 5.0 7.2
2016-Feb-05 22:18 335 9 gusting 13 5.0 7.2
2016-Feb-05 22:12 335 10 gusting 13 5.0 7.2
2016-Feb-05 22:06 334 13 gusting 17 5.6 7.2
2016-Feb-05 22:00 335 14 gusting 19 5.6 7.2
2016-Feb-05 21:54 333 13 gusting 18 5.6 7.2
2016-Feb-05 21:48 340 11 gusting 15 5.6 7.2
2016-Feb-05 21:42 341 11 gusting 15 5.6 7.2
2016-Feb-05 21:36 332 12 gusting 17 5.6 7.2
2016-Feb-05 21:30 336 12 gusting 19 5.6 7.2
2016-Feb-05 21:24 341 12 gusting 17 5.6 7.2
2016-Feb-05 21:18 335 12 gusting 17 5.6 7.2
2016-Feb-05 21:12 329 11 gusting 18 5.6 7.2
2016-Feb-05 21:06 341 11 gusting 19 5.6 7.2
2016-Feb-05 21:00 341 13 gusting 17 5.6 7.2